sensor_id;sensor_type;location;lat;lon;timestamp;pressure;altitude;pressure_sealevel;temperature;humidity
50349;BME280;36250;48.740;22.174;2023-09-12T00:00:01;100319.00;;;20.55;73.18
50349;BME280;36250;48.740;22.174;2023-09-12T00:02:30;100321.78;;;20.55;73.05
50349;BME280;36250;48.740;22.174;2023-09-12T00:04:55;100320.78;;;20.51;73.53
50349;BME280;36250;48.740;22.174;2023-09-12T00:07:20;100322.56;;;20.47;73.81
50349;BME280;36250;48.740;22.174;2023-09-12T00:09:45;100312.00;;;20.49;73.57
50349;BME280;36250;48.740;22.174;2023-09-12T00:12:13;100324.38;;;20.51;73.72
50349;BME280;36250;48.740;22.174;2023-09-12T00:14:38;100320.66;;;20.56;73.66
50349;BME280;36250;48.740;22.174;2023-09-12T00:17:04;100319.00;;;20.55;73.60
50349;BME280;36250;48.740;22.174;2023-09-12T00:19:29;100313.31;;;20.51;73.54
50349;BME280;36250;48.740;22.174;2023-09-12T00:21:54;100317.69;;;20.52;73.74
50349;BME280;36250;48.740;22.174;2023-09-12T00:24:20;100327.31;;;20.55;73.70
50349;BME280;36250;48.740;22.174;2023-09-12T00:26:45;100325.03;;;20.57;73.63
50349;BME280;36250;48.740;22.174;2023-09-12T00:29:10;100325.56;;;20.59;73.57
50349;BME280;36250;48.740;22.174;2023-09-12T00:31:35;100328.72;;;20.66;73.16
50349;BME280;36250;48.740;22.174;2023-09-12T00:34:01;100325.63;;;20.67;72.85
50349;BME280;36250;48.740;22.174;2023-09-12T00:36:26;100325.00;;;20.70;72.81
50349;BME280;36250;48.740;22.174;2023-09-12T00:38:51;100323.84;;;20.71;72.65
50349;BME280;36250;48.740;22.174;2023-09-12T00:41:16;100324.06;;;20.75;72.61
50349;BME280;36250;48.740;22.174;2023-09-12T00:43:42;100330.09;;;20.77;72.19
50349;BME280;36250;48.740;22.174;2023-09-12T00:46:07;100321.50;;;20.78;72.07
50349;BME280;36250;48.740;22.174;2023-09-12T00:48:32;100325.06;;;20.79;72.10
50349;BME280;36250;48.740;22.174;2023-09-12T00:50:58;100321.28;;;20.75;72.14
50349;BME280;36250;48.740;22.174;2023-09-12T00:53:23;100322.69;;;20.64;72.31
50349;BME280;36250;48.740;22.174;2023-09-12T00:55:50;100326.19;;;20.56;72.75
50349;BME280;36250;48.740;22.174;2023-09-12T00:58:16;100328.75;;;20.52;73.07
50349;BME280;36250;48.740;22.174;2023-09-12T01:00:42;100327.94;;;20.52;73.17
50349;BME280;36250;48.740;22.174;2023-09-12T01:03:07;100326.31;;;20.51;73.20
50349;BME280;36250;48.740;22.174;2023-09-12T01:05:33;100335.78;;;20.36;73.32
50349;BME280;36250;48.740;22.174;2023-09-12T01:07:59;100333.31;;;20.35;73.42
50349;BME280;36250;48.740;22.174;2023-09-12T01:10:25;100322.13;;;20.40;73.38
50349;BME280;36250;48.740;22.174;2023-09-12T01:12:50;100323.47;;;20.42;73.03
50349;BME280;36250;48.740;22.174;2023-09-12T01:15:16;100319.00;;;20.33;73.23
50349;BME280;36250;48.740;22.174;2023-09-12T01:17:44;100309.19;;;20.26;73.25
50349;BME280;36250;48.740;22.174;2023-09-12T01:20:11;100317.69;;;20.16;73.83
50349;BME280;36250;48.740;22.174;2023-09-12T01:25:42;100319.25;;;19.95;75.00
50349;BME280;36250;48.740;22.174;2023-09-12T01:28:12;100315.03;;;19.98;75.71
50349;BME280;36250;48.740;22.174;2023-09-12T01:30:40;100310.84;;;20.00;75.78
50349;BME280;36250;48.740;22.174;2023-09-12T01:33:06;100317.41;;;20.04;75.85
50349;BME280;36250;48.740;22.174;2023-09-12T01:35:32;100323.94;;;20.08;75.76
50349;BME280;36250;48.740;22.174;2023-09-12T01:37:57;100316.25;;;20.05;75.82
50349;BME280;36250;48.740;22.174;2023-09-12T01:40:25;100321.28;;;20.03;75.90
50349;BME280;36250;48.740;22.174;2023-09-12T01:42:52;100325.69;;;20.04;76.05
50349;BME280;36250;48.740;22.174;2023-09-12T01:45:18;100324.75;;;20.09;76.15
50349;BME280;36250;48.740;22.174;2023-09-12T01:47:44;100323.81;;;20.13;76.03
50349;BME280;36250;48.740;22.174;2023-09-12T01:50:10;100326.16;;;20.20;75.78
50349;BME280;36250;48.740;22.174;2023-09-12T01:52:38;100319.22;;;20.22;75.76
50349;BME280;36250;48.740;22.174;2023-09-12T01:55:03;100331.81;;;20.28;75.44
50349;BME280;36250;48.740;22.174;2023-09-12T01:57:29;100321.25;;;20.30;75.26
50349;BME280;36250;48.740;22.174;2023-09-12T01:59:55;100326.16;;;20.34;75.36
50349;BME280;36250;48.740;22.174;2023-09-12T02:02:20;100326.34;;;20.37;75.07
50349;BME280;36250;48.740;22.174;2023-09-12T02:04:48;100323.78;;;20.41;75.00
50349;BME280;36250;48.740;22.174;2023-09-12T02:07:15;100317.44;;;20.40;74.91
50349;BME280;36250;48.740;22.174;2023-09-12T02:09:41;100321.84;;;20.41;74.70
50349;BME280;36250;48.740;22.174;2023-09-12T02:12:06;100320.53;;;20.39;74.64
50349;BME280;36250;48.740;22.174;2023-09-12T02:14:31;100324.72;;;20.36;74.56
50349;BME280;36250;48.740;22.174;2023-09-12T02:16:56;100321.25;;;20.30;74.73
50349;BME280;36250;48.740;22.174;2023-09-12T02:19:22;100321.88;;;20.27;75.04
50349;BME280;36250;48.740;22.174;2023-09-12T02:21:47;100321.69;;;20.24;75.08
50349;BME280;36250;48.740;22.174;2023-09-12T02:24:12;100326.41;;;20.23;75.17
50349;BME280;36250;48.740;22.174;2023-09-12T02:26:37;100327.81;;;20.21;75.26
50349;BME280;36250;48.740;22.174;2023-09-12T02:29:03;100322.88;;;20.18;75.31
50349;BME280;36250;48.740;22.174;2023-09-12T02:31:29;100320.44;;;20.16;75.50
50349;BME280;36250;48.740;22.174;2023-09-12T02:33:54;100320.63;;;20.20;75.38
50349;BME280;36250;48.740;22.174;2023-09-12T02:36:19;100323.00;;;20.26;75.19
50349;BME280;36250;48.740;22.174;2023-09-12T02:38:45;100319.63;;;20.29;75.17
50349;BME280;36250;48.740;22.174;2023-09-12T02:41:10;100323.19;;;20.30;74.99
50349;BME280;36250;48.740;22.174;2023-09-12T02:43:35;100320.03;;;20.37;75.04
50349;BME280;36250;48.740;22.174;2023-09-12T02:46:00;100320.03;;;20.37;74.97
50349;BME280;36250;48.740;22.174;2023-09-12T02:48:25;100316.59;;;20.40;74.78
50349;BME280;36250;48.740;22.174;2023-09-12T02:50:51;100314.38;;;20.42;74.64
50349;BME280;36250;48.740;22.174;2023-09-12T02:53:16;100318.75;;;20.43;74.33
50349;BME280;36250;48.740;22.174;2023-09-12T02:55:41;100324.09;;;20.39;74.27
50349;BME280;36250;48.740;22.174;2023-09-12T02:58:07;100328.44;;;20.32;74.74
50349;BME280;36250;48.740;22.174;2023-09-12T03:00:32;100323.50;;;20.28;74.59
50349;BME280;36250;48.740;22.174;2023-09-12T03:02:57;100328.41;;;20.18;74.39
50349;BME280;36250;48.740;22.174;2023-09-12T03:05:22;100313.69;;;20.09;74.17
50349;BME280;36250;48.740;22.174;2023-09-12T03:07:48;100320.66;;;20.06;74.01
50349;BME280;36250;48.740;22.174;2023-09-12T03:10:13;100313.91;;;19.99;73.59
50349;BME280;36250;48.740;22.174;2023-09-12T03:12:39;100324.06;;;19.76;73.73
50349;BME280;36250;48.740;22.174;2023-09-12T03:15:04;100321.31;;;19.49;73.96
50349;BME280;36250;48.740;22.174;2023-09-12T03:17:29;100331.69;;;19.25;74.63
50349;BME280;36250;48.740;22.174;2023-09-12T03:19:54;100332.06;;;19.05;75.57
50349;BME280;36250;48.740;22.174;2023-09-12T03:22:20;100336.53;;;19.00;75.60
50349;BME280;36250;48.740;22.174;2023-09-12T03:24:45;100333.09;;;19.09;75.44
50349;BME280;36250;48.740;22.174;2023-09-12T03:27:10;100342.13;;;18.95;75.80
50349;BME280;36250;48.740;22.174;2023-09-12T03:29:35;100342.09;;;18.82;75.85
50349;BME280;36250;48.740;22.174;2023-09-12T03:32:01;100343.84;;;18.78;76.63
50349;BME280;36250;48.740;22.174;2023-09-12T03:34:26;100344.72;;;18.73;76.75
50349;BME280;36250;48.740;22.174;2023-09-12T03:36:51;100340.34;;;18.72;76.78
50349;BME280;36250;48.740;22.174;2023-09-12T03:39:16;100342.50;;;18.75;77.17
50349;BME280;36250;48.740;22.174;2023-09-12T03:41:41;100338.44;;;18.86;76.86
50349;BME280;36250;48.740;22.174;2023-09-12T03:44:07;100337.84;;;18.89;76.60
50349;BME280;36250;48.740;22.174;2023-09-12T03:46:33;100347.38;;;18.97;76.33
50349;BME280;36250;48.740;22.174;2023-09-12T03:48:58;100349.81;;;18.98;76.28
50349;BME280;36250;48.740;22.174;2023-09-12T03:51:23;100351.66;;;19.03;76.20
50349;BME280;36250;48.740;22.174;2023-09-12T03:53:48;100353.50;;;19.08;76.21
50349;BME280;36250;48.740;22.174;2023-09-12T03:56:15;100358.34;;;19.16;75.88
50349;BME280;36250;48.740;22.174;2023-09-12T03:58:40;100354.47;;;19.17;75.48
50349;BME280;36250;48.740;22.174;2023-09-12T04:01:05;100357.31;;;19.12;75.87
50349;BME280;36250;48.740;22.174;2023-09-12T04:03:31;100362.03;;;19.11;76.41
50349;BME280;36250;48.740;22.174;2023-09-12T04:05:56;100361.72;;;19.13;76.18
50349;BME280;36250;48.740;22.174;2023-09-12T04:08:21;100367.22;;;19.13;76.32
50349;BME280;36250;48.740;22.174;2023-09-12T04:10:46;100367.97;;;19.18;76.31
50349;BME280;36250;48.740;22.174;2023-09-12T04:13:12;100366.44;;;19.12;76.39
50349;BME280;36250;48.740;22.174;2023-09-12T04:15:37;100373.53;;;18.99;76.53
50349;BME280;36250;48.740;22.174;2023-09-12T04:18:02;100366.97;;;18.95;76.71
50349;BME280;36250;48.740;22.174;2023-09-12T04:20:28;100377.41;;;18.98;76.93
50349;BME280;36250;48.740;22.174;2023-09-12T04:22:53;100365.25;;;18.99;76.85
50349;BME280;36250;48.740;22.174;2023-09-12T04:25:18;100374.78;;;19.07;77.04
50349;BME280;36250;48.740;22.174;2023-09-12T04:27:45;100370.31;;;19.11;76.79
50349;BME280;36250;48.740;22.174;2023-09-12T04:30:10;100369.81;;;19.23;76.67
50349;BME280;36250;48.740;22.174;2023-09-12T04:32:35;100367.31;;;19.40;76.33
50349;BME280;36250;48.740;22.174;2023-09-12T04:35:00;100372.66;;;19.50;75.75
50349;BME280;36250;48.740;22.174;2023-09-12T04:37:26;100375.31;;;19.55;75.57
50349;BME280;36250;48.740;22.174;2023-09-12T04:39:51;100379.09;;;19.59;75.20
50349;BME280;36250;48.740;22.174;2023-09-12T04:42:16;100378.59;;;19.57;75.46
50349;BME280;36250;48.740;22.174;2023-09-12T04:44:42;100387.38;;;19.59;75.09
50349;BME280;36250;48.740;22.174;2023-09-12T04:47:07;100381.16;;;19.53;75.37
50349;BME280;36250;48.740;22.174;2023-09-12T04:49:33;100394.06;;;19.58;75.62
50349;BME280;36250;48.740;22.174;2023-09-12T04:51:58;100397.13;;;19.70;75.52
50349;BME280;36250;48.740;22.174;2023-09-12T04:54:23;100391.91;;;19.82;75.10
50349;BME280;36250;48.740;22.174;2023-09-12T04:56:49;100391.41;;;19.94;75.13
50349;BME280;36250;48.740;22.174;2023-09-12T04:59:14;100392.31;;;20.03;75.09
50349;BME280;36250;48.740;22.174;2023-09-12T05:01:39;100393.44;;;20.15;74.97
50349;BME280;36250;48.740;22.174;2023-09-12T05:04:05;100393.84;;;20.22;74.22
50349;BME280;36250;48.740;22.174;2023-09-12T05:06:30;100401.31;;;20.36;74.04
50349;BME280;36250;48.740;22.174;2023-09-12T05:08:55;100389.91;;;20.51;74.05
50349;BME280;36250;48.740;22.174;2023-09-12T05:11:23;100394.47;;;20.69;73.86
50349;BME280;36250;48.740;22.174;2023-09-12T05:13:49;100395.75;;;20.85;73.27
50349;BME280;36250;48.740;22.174;2023-09-12T05:16:14;100394.19;;;20.92;72.56
50349;BME280;36250;48.740;22.174;2023-09-12T05:18:40;100393.75;;;20.99;72.38
50349;BME280;36250;48.740;22.174;2023-09-12T05:21:05;100402.16;;;20.94;72.12
50349;BME280;36250;48.740;22.174;2023-09-12T05:23:30;100413.84;;;20.91;71.90
50349;BME280;36250;48.740;22.174;2023-09-12T05:25:56;100413.06;;;20.90;72.07
50349;BME280;36250;48.740;22.174;2023-09-12T05:28:21;100414.22;;;20.98;71.78
50349;BME280;36250;48.740;22.174;2023-09-12T05:30:46;100413.81;;;21.05;71.43
50349;BME280;36250;48.740;22.174;2023-09-12T05:33:11;100413.81;;;21.05;71.42
50349;BME280;36250;48.740;22.174;2023-09-12T05:35:37;100416.28;;;21.06;71.75
50349;BME280;36250;48.740;22.174;2023-09-12T05:38:02;100415.22;;;21.16;71.81
50349;BME280;36250;48.740;22.174;2023-09-12T05:40:28;100415.41;;;21.19;71.87
50349;BME280;36250;48.740;22.174;2023-09-12T05:42:53;100416.91;;;21.25;71.76
50349;BME280;36250;48.740;22.174;2023-09-12T05:45:18;100416.03;;;21.16;71.94
50349;BME280;36250;48.740;22.174;2023-09-12T05:47:43;100414.22;;;21.12;72.46
50349;BME280;36250;48.740;22.174;2023-09-12T05:50:11;100414.41;;;21.15;72.44
50349;BME280;36250;48.740;22.174;2023-09-12T05:52:36;100412.94;;;21.18;72.19
50349;BME280;36250;48.740;22.174;2023-09-12T05:55:02;100419.94;;;21.15;72.39
50349;BME280;36250;48.740;22.174;2023-09-12T05:57:27;100408.22;;;21.18;72.43
50349;BME280;36250;48.740;22.174;2023-09-12T05:59:52;100413.06;;;21.35;72.50
50349;BME280;36250;48.740;22.174;2023-09-12T06:02:18;100418.53;;;21.48;71.68
50349;BME280;36250;48.740;22.174;2023-09-12T06:04:43;100411.91;;;21.58;71.59
50349;BME280;36250;48.740;22.174;2023-09-12T06:07:08;100408.72;;;21.73;71.56
50349;BME280;36250;48.740;22.174;2023-09-12T06:09:34;100413.16;;;21.83;70.76
50349;BME280;36250;48.740;22.174;2023-09-12T06:11:59;100412.34;;;21.82;70.57
50349;BME280;36250;48.740;22.174;2023-09-12T06:14:24;100411.84;;;21.80;70.71
50349;BME280;36250;48.740;22.174;2023-09-12T06:16:49;100415.84;;;21.96;70.89
50349;BME280;36250;48.740;22.174;2023-09-12T06:19:15;100416.88;;;22.09;70.62
50349;BME280;36250;48.740;22.174;2023-09-12T06:21:40;100418.09;;;22.25;70.65
50349;BME280;36250;48.740;22.174;2023-09-12T06:24:13;100414.03;;;22.40;70.17
50349;BME280;36250;48.740;22.174;2023-09-12T06:26:38;100416.81;;;22.40;69.40
50349;BME280;36250;48.740;22.174;2023-09-12T06:29:04;100423.81;;;22.37;69.59
50349;BME280;36250;48.740;22.174;2023-09-12T06:31:29;100428.41;;;22.42;69.99
50349;BME280;36250;48.740;22.174;2023-09-12T06:33:55;100423.81;;;22.46;70.19
50349;BME280;36250;48.740;22.174;2023-09-12T06:36:20;100419.91;;;22.55;70.15
50349;BME280;36250;48.740;22.174;2023-09-12T06:38:45;100427.81;;;22.62;70.54
50349;BME280;36250;48.740;22.174;2023-09-12T06:41:11;100420.16;;;22.76;70.45
50349;BME280;36250;48.740;22.174;2023-09-12T06:43:36;100430.41;;;22.84;70.13
50349;BME280;36250;48.740;22.174;2023-09-12T06:46:01;100425.53;;;22.89;70.20
50349;BME280;36250;48.740;22.174;2023-09-12T06:48:26;100425.38;;;22.86;70.51
50349;BME280;36250;48.740;22.174;2023-09-12T06:50:54;100422.91;;;22.84;70.47
50349;BME280;36250;48.740;22.174;2023-09-12T06:53:19;100427.00;;;22.87;70.79
50349;BME280;36250;48.740;22.174;2023-09-12T06:55:44;100429.31;;;22.94;70.92
50349;BME280;36250;48.740;22.174;2023-09-12T06:58:10;100430.44;;;22.93;71.28
50349;BME280;36250;48.740;22.174;2023-09-12T07:00:36;100425.84;;;22.97;71.40
50349;BME280;36250;48.740;22.174;2023-09-12T07:03:01;100427.63;;;23.01;70.96
50349;BME280;36250;48.740;22.174;2023-09-12T07:05:27;100431.56;;;23.09;71.02
50349;BME280;36250;48.740;22.174;2023-09-12T07:07:52;100428.94;;;23.21;70.59
50349;BME280;36250;48.740;22.174;2023-09-12T07:10:17;100425.81;;;23.31;69.98
50349;BME280;36250;48.740;22.174;2023-09-12T07:12:43;100422.72;;;23.41;70.06
50349;BME280;36250;48.740;22.174;2023-09-12T07:15:08;100438.72;;;23.52;68.58
50349;BME280;36250;48.740;22.174;2023-09-12T07:17:34;100439.19;;;23.63;68.03
50349;BME280;36250;48.740;22.174;2023-09-12T07:19:59;100438.50;;;23.75;67.26
50349;BME280;36250;48.740;22.174;2023-09-12T07:22:25;100439.72;;;23.94;66.78
50349;BME280;36250;48.740;22.174;2023-09-12T07:24:51;100440.19;;;24.05;66.23
50349;BME280;36250;48.740;22.174;2023-09-12T07:27:16;100446.41;;;24.10;65.06
50349;BME280;36250;48.740;22.174;2023-09-12T07:29:41;100441.16;;;24.17;64.66
50349;BME280;36250;48.740;22.174;2023-09-12T07:32:06;100441.72;;;24.32;64.78
50349;BME280;36250;48.740;22.174;2023-09-12T07:34:31;100442.66;;;24.36;63.38
50349;BME280;36250;48.740;22.174;2023-09-12T07:36:58;100441.97;;;24.47;63.83
50349;BME280;36250;48.740;22.174;2023-09-12T07:39:23;100438.72;;;24.66;63.01
50349;BME280;36250;48.740;22.174;2023-09-12T07:41:48;100431.00;;;24.71;62.01
50349;BME280;36250;48.740;22.174;2023-09-12T07:44:14;100433.06;;;24.83;62.30
50349;BME280;36250;48.740;22.174;2023-09-12T07:46:41;100438.03;;;24.98;61.87
50349;BME280;36250;48.740;22.174;2023-09-12T07:49:06;100437.25;;;25.10;60.77
50349;BME280;36250;48.740;22.174;2023-09-12T07:51:34;100434.16;;;25.11;60.35
50349;BME280;36250;48.740;22.174;2023-09-12T07:53:59;100437.44;;;25.25;60.25
50349;BME280;36250;48.740;22.174;2023-09-12T07:56:24;100431.13;;;25.16;59.71
50349;BME280;36250;48.740;22.174;2023-09-12T07:58:50;100429.63;;;25.19;59.71
50349;BME280;36250;48.740;22.174;2023-09-12T08:01:15;100433.06;;;25.36;59.60
50349;BME280;36250;48.740;22.174;2023-09-12T08:03:41;100427.22;;;25.50;58.87
50349;BME280;36250;48.740;22.174;2023-09-12T08:06:07;100424.44;;;25.50;58.54
50349;BME280;36250;48.740;22.174;2023-09-12T08:08:32;100431.63;;;25.51;58.25
50349;BME280;36250;48.740;22.174;2023-09-12T08:10:58;100428.78;;;25.60;59.24
50349;BME280;36250;48.740;22.174;2023-09-12T08:13:26;100426.81;;;25.72;58.64
50349;BME280;36250;48.740;22.174;2023-09-12T08:15:52;100434.22;;;25.68;57.93
50349;BME280;36250;48.740;22.174;2023-09-12T08:18:18;100430.19;;;25.78;57.62
50349;BME280;36250;48.740;22.174;2023-09-12T08:20:43;100428.13;;;25.87;57.61
50349;BME280;36250;48.740;22.174;2023-09-12T08:23:08;100434.88;;;25.98;57.69
50349;BME280;36250;48.740;22.174;2023-09-12T08:25:33;100425.94;;;26.17;56.91
50349;BME280;36250;48.740;22.174;2023-09-12T08:27:59;100426.53;;;26.22;56.74
50349;BME280;36250;48.740;22.174;2023-09-12T08:30:24;100432.47;;;26.21;56.20
50349;BME280;36250;48.740;22.174;2023-09-12T08:32:50;100431.06;;;26.27;56.50
50349;BME280;36250;48.740;22.174;2023-09-12T08:35:16;100432.25;;;26.38;55.48
50349;BME280;36250;48.740;22.174;2023-09-12T08:37:41;100434.19;;;26.49;55.50
50349;BME280;36250;48.740;22.174;2023-09-12T08:40:07;100433.72;;;26.59;54.39
50349;BME280;36250;48.740;22.174;2023-09-12T08:42:36;100433.94;;;26.66;54.65
50349;BME280;36250;48.740;22.174;2023-09-12T08:45:03;100435.59;;;26.80;53.68
50349;BME280;36250;48.740;22.174;2023-09-12T08:47:29;100430.78;;;26.92;52.96
50349;BME280;36250;48.740;22.174;2023-09-12T08:49:55;100428.00;;;26.92;53.11
50349;BME280;36250;48.740;22.174;2023-09-12T08:52:21;100434.16;;;26.86;52.60
50349;BME280;36250;48.740;22.174;2023-09-12T08:54:46;100439.75;;;26.86;52.09
50349;BME280;36250;48.740;22.174;2023-09-12T08:57:11;100440.78;;;26.93;52.10
50349;BME280;36250;48.740;22.174;2023-09-12T08:59:38;100437.47;;;27.03;52.41
50349;BME280;36250;48.740;22.174;2023-09-12T09:02:05;100430.13;;;27.11;51.42
50349;BME280;36250;48.740;22.174;2023-09-12T09:04:32;100430.88;;;27.23;51.85
50349;BME280;36250;48.740;22.174;2023-09-12T09:06:58;100430.94;;;27.39;51.66
50349;BME280;36250;48.740;22.174;2023-09-12T09:09:24;100436.22;;;27.56;51.07
50349;BME280;36250;48.740;22.174;2023-09-12T09:11:50;100425.78;;;27.69;51.02
50349;BME280;36250;48.740;22.174;2023-09-12T09:14:15;100427.41;;;27.70;50.30
50349;BME280;36250;48.740;22.174;2023-09-12T09:16:40;100426.97;;;27.83;50.37
50349;BME280;36250;48.740;22.174;2023-09-12T09:19:06;100429.66;;;27.95;50.15
50349;BME280;36250;48.740;22.174;2023-09-12T09:21:34;100425.91;;;28.04;48.43
50349;BME280;36250;48.740;22.174;2023-09-12T09:24:04;100425.53;;;28.05;49.08
50349;BME280;36250;48.740;22.174;2023-09-12T09:29:09;100430.16;;;28.29;49.52
50349;BME280;36250;48.740;22.174;2023-09-12T09:31:35;100422.66;;;28.33;48.30
50349;BME280;36250;48.740;22.174;2023-09-12T09:34:01;100425.97;;;28.38;48.20
50349;BME280;36250;48.740;22.174;2023-09-12T09:36:27;100424.44;;;28.41;46.83
50349;BME280;36250;48.740;22.174;2023-09-12T09:38:52;100426.22;;;28.49;47.55
50349;BME280;36250;48.740;22.174;2023-09-12T09:41:20;100424.31;;;28.53;46.95
50349;BME280;36250;48.740;22.174;2023-09-12T09:43:50;100418.63;;;28.65;47.61
50349;BME280;36250;48.740;22.174;2023-09-12T09:46:15;100423.94;;;28.70;46.85
50349;BME280;36250;48.740;22.174;2023-09-12T09:48:42;100423.81;;;28.82;46.79
50349;BME280;36250;48.740;22.174;2023-09-12T09:51:13;100423.97;;;28.89;46.34
50349;BME280;36250;48.740;22.174;2023-09-12T09:53:38;100424.56;;;28.98;45.87
50349;BME280;36250;48.740;22.174;2023-09-12T09:56:14;100418.66;;;29.03;45.78
50349;BME280;36250;48.740;22.174;2023-09-12T09:58:46;100420.44;;;29.11;45.65
50349;BME280;36250;48.740;22.174;2023-09-12T10:01:12;100424.50;;;29.14;45.10
50349;BME280;36250;48.740;22.174;2023-09-12T10:03:39;100421.59;;;29.10;44.86
50349;BME280;36250;48.740;22.174;2023-09-12T10:06:05;100410.84;;;29.12;45.03
50349;BME280;36250;48.740;22.174;2023-09-12T10:08:31;100419.19;;;29.09;44.88
50349;BME280;36250;48.740;22.174;2023-09-12T10:10:57;100414.97;;;29.18;45.17
50349;BME280;36250;48.740;22.174;2023-09-12T10:13:22;100406.81;;;29.29;44.95
50349;BME280;36250;48.740;22.174;2023-09-12T10:15:51;100414.53;;;29.36;44.44
50349;BME280;36250;48.740;22.174;2023-09-12T10:18:18;100405.00;;;29.40;44.88
50349;BME280;36250;48.740;22.174;2023-09-12T10:23:16;100405.69;;;29.34;44.03
50349;BME280;36250;48.740;22.174;2023-09-12T10:25:44;100400.31;;;29.44;44.16
50349;BME280;36250;48.740;22.174;2023-09-12T10:28:09;100398.88;;;29.54;43.57
50349;BME280;36250;48.740;22.174;2023-09-12T10:30:35;100389.38;;;29.62;43.48
50349;BME280;36250;48.740;22.174;2023-09-12T10:33:02;100386.38;;;29.74;43.52
50349;BME280;36250;48.740;22.174;2023-09-12T10:35:28;100389.03;;;29.86;43.27
50349;BME280;36250;48.740;22.174;2023-09-12T10:37:54;100397.91;;;29.88;43.36
50349;BME280;36250;48.740;22.174;2023-09-12T10:40:22;100390.03;;;29.97;43.12
50349;BME280;36250;48.740;22.174;2023-09-12T10:42:48;100397.34;;;30.02;43.06
50349;BME280;36250;48.740;22.174;2023-09-12T10:45:14;100391.09;;;30.12;42.59
50349;BME280;36250;48.740;22.174;2023-09-12T10:47:40;100389.53;;;30.14;42.63
50349;BME280;36250;48.740;22.174;2023-09-12T10:50:06;100383.91;;;30.14;43.51
50349;BME280;36250;48.740;22.174;2023-09-12T10:52:31;100382.16;;;30.32;42.48
50349;BME280;36250;48.740;22.174;2023-09-12T10:54:57;100379.63;;;30.46;42.16
50349;BME280;36250;48.740;22.174;2023-09-12T10:57:22;100385.69;;;30.52;42.13
50349;BME280;36250;48.740;22.174;2023-09-12T11:02:42;100374.03;;;30.76;41.06
50349;BME280;36250;48.740;22.174;2023-09-12T11:07:55;100376.81;;;30.76;42.08
50349;BME280;36250;48.740;22.174;2023-09-12T11:10:21;100376.94;;;30.87;41.35
50349;BME280;36250;48.740;22.174;2023-09-12T11:12:47;100367.16;;;30.74;41.10
50349;BME280;36250;48.740;22.174;2023-09-12T11:15:14;100367.31;;;30.88;40.54
50349;BME280;36250;48.740;22.174;2023-09-12T11:17:44;100374.66;;;30.92;41.09
50349;BME280;36250;48.740;22.174;2023-09-12T11:20:10;100364.22;;;30.93;41.22
50349;BME280;36250;48.740;22.174;2023-09-12T11:22:42;100364.84;;;30.83;40.92
50349;BME280;36250;48.740;22.174;2023-09-12T11:25:24;100366.44;;;30.80;41.80
50349;BME280;36250;48.740;22.174;2023-09-12T11:30:18;100360.75;;;31.43;41.27
50349;BME280;36250;48.740;22.174;2023-09-12T11:32:45;100359.78;;;31.65;40.01
50349;BME280;36250;48.740;22.174;2023-09-12T11:35:11;100355.28;;;31.57;39.08
50349;BME280;36250;48.740;22.174;2023-09-12T11:37:36;100352.41;;;31.50;39.64
50349;BME280;36250;48.740;22.174;2023-09-12T11:42:39;100352.16;;;31.66;39.02
50349;BME280;36250;48.740;22.174;2023-09-12T11:45:07;100361.53;;;31.80;38.68
50349;BME280;36250;48.740;22.174;2023-09-12T11:47:32;100352.16;;;32.10;38.44
50349;BME280;36250;48.740;22.174;2023-09-12T11:49:59;100354.25;;;32.23;37.32
50349;BME280;36250;48.740;22.174;2023-09-12T11:52:24;100348.66;;;32.27;37.44
50349;BME280;36250;48.740;22.174;2023-09-12T11:54:49;100338.31;;;32.45;37.43
50349;BME280;36250;48.740;22.174;2023-09-12T11:57:15;100345.50;;;32.39;36.38
50349;BME280;36250;48.740;22.174;2023-09-12T11:59:41;100340.59;;;32.29;37.11
50349;BME280;36250;48.740;22.174;2023-09-12T12:02:10;100339.38;;;32.23;37.49
50349;BME280;36250;48.740;22.174;2023-09-12T12:04:35;100336.06;;;32.10;37.76
50349;BME280;36250;48.740;22.174;2023-09-12T12:07:01;100339.75;;;32.18;37.17
50349;BME280;36250;48.740;22.174;2023-09-12T12:09:27;100342.13;;;32.16;37.00
50349;BME280;36250;48.740;22.174;2023-09-12T12:11:53;100331.00;;;32.37;36.69
50349;BME280;36250;48.740;22.174;2023-09-12T12:14:18;100331.13;;;32.55;36.15
50349;BME280;36250;48.740;22.174;2023-09-12T12:16:45;100324.31;;;32.59;36.09
50349;BME280;36250;48.740;22.174;2023-09-12T12:19:10;100327.19;;;32.73;36.31
50349;BME280;36250;48.740;22.174;2023-09-12T12:21:37;100324.84;;;32.96;36.03
50349;BME280;36250;48.740;22.174;2023-09-12T12:24:03;100316.47;;;33.21;35.19
50349;BME280;36250;48.740;22.174;2023-09-12T12:26:29;100319.31;;;33.32;34.92
50349;BME280;36250;48.740;22.174;2023-09-12T12:28:55;100311.69;;;33.43;35.61
50349;BME280;36250;48.740;22.174;2023-09-12T12:31:20;100310.88;;;33.49;34.55
50349;BME280;36250;48.740;22.174;2023-09-12T12:33:53;100314.91;;;33.45;34.47
50349;BME280;36250;48.740;22.174;2023-09-12T12:36:19;100303.66;;;33.69;33.66
50349;BME280;36250;48.740;22.174;2023-09-12T12:38:45;100302.84;;;33.69;34.44
50349;BME280;36250;48.740;22.174;2023-09-12T12:41:12;100306.09;;;33.82;33.04
50349;BME280;36250;48.740;22.174;2023-09-12T12:43:40;100306.47;;;33.91;34.16
50349;BME280;36250;48.740;22.174;2023-09-12T12:46:09;100298.00;;;34.08;33.53
50349;BME280;36250;48.740;22.174;2023-09-12T12:48:35;100306.06;;;34.10;34.53
50349;BME280;36250;48.740;22.174;2023-09-12T12:53:42;100299.97;;;34.32;33.48